Forside
METAR-TAF:

METAR-TAF

Lufthavne :

Bahrain, Bahrain

Breddekreds: 26-16N, længdekreds: 050-39E, højde: 2 m

Aktuelle vejr

Denne rapport blev lavet for 32 minutter siden, kl. 07:00 UTC
Vind 7 kt fra nordvest, varierende mellem vestnordvest og nord
Temperatur 21°C
Fugtighed 64%
Tryk 1015 hPa
Sigt 10 km eller mere
ingen skyer under 1500m og ingen cumulonimbus

METAR: OBBI 290700Z 32007KT 290V360 CAVOK 21/14 Q1015 NOSIG

Tid: 10:32 (07:32 UTC)

Vejrudsigter

Denne rapport blev lavet for 2 timer og 32 minutter siden, kl. 05:00 UTC
Foreløbig gælder fra 29 på 06 UTC til 01 på 12 UTC
Vind 7 kt fra nordnordvest
Sigt 10 km eller mere
ingen skyer under 1500m og ingen cumulonimbus
ændring
fra 29 på 13 UTC til 29 på 15 UTC
Vind 10 kt fra østsydøst
Sandsynlighed 30% :
Midlertidig
fra 01 på 00 UTC til 01 på 06 UTC
Sigt: 5000 m
tåge/dis

TAF: OBBI 290500Z 2906/0112 33007KT CAVOK BECMG 2913/2915 12010KT PROB30 TEMPO 0100/0106 5000 HZ NSC

Vejrobservationer og prognoser fra mere end 4000 lufthavne (METAR og TAF).

De gule og røde prikker repræsenterer de meteorologiske stationer.

Flyt musen over at se navnet på stationen.

Så klik over at se vejr observationer og prognoser.

At skifte det kort: Klik på de grønne knapper med et sort kors for at zoome ind; på den grønne knap med en bindestreg for at zoome ud; eller på de grønne pile for tilstødende kort.


METAR-TAF: